»·PEaware :: N722SD L52-L88

N722SD :: L52-L88

FLIGHT INFORMATION

Flight Status: Arrived
Operator: Privately registered:
United States
More flights under this callsign
Pilot: Stephen D. (45498)
Aircraft: CESSNA 172 SKYHAWK
(C172)
More flights by this aircraft type
Origin: L52 Oceano Co
United States
Destination: L88 New Cuyama
United States
More flights between these airports :: More routes between these airports
Route: WYNN8 FLW
File this flight plan on PilotEdge
Remarks: CAT-01
Altitude:
(Current/Filed)
7,500ft
Speed:
(Current/Filed)
100kts
Departed: 02-Nov-23 09:16 AM
Arrived: 02-Nov-23 10:19 AM
Distance/Time
Traveled:
47nm/1:03
Distance/Time
To Go:
Arrived

Flight Plot

Page will automatically refresh every two minutes.

Flight plan parsing failed; only flown route is shown


Map Options




Map Legend


Flown Route
Filed Route
Departure Airport
Arrival Airport
Navaid (VOR, NDB)
Fix

Horizontal Profiles

Position Reports

Time Latitude Longitude Heading Altitude Ground
Speed
02-Nov-23 09:05 35.102450 -120.622892 204 19ft 0kts
02-Nov-23 09:06 35.102450 -120.622892 204 21ft 0kts
02-Nov-23 09:07 35.102450 -120.622892 204 21ft 0kts
02-Nov-23 09:08 35.102450 -120.622892 204 20ft 0kts
02-Nov-23 09:09 35.102450 -120.622892 204 20ft 0kts
02-Nov-23 09:10 35.101204 -120.622574 128 21ft 8kts
02-Nov-23 09:11 35.099426 -120.619593 89 19ft 0kts
02-Nov-23 09:12 35.099426 -120.619593 89 19ft 0kts
02-Nov-23 09:13 35.099483 -120.619508 42 19ft 0kts
02-Nov-23 09:14 35.099973 -120.619427 294 18ft 0kts
02-Nov-23 09:15 35.106547 -120.632453 299 315ft 76kts
02-Nov-23 09:16 35.119887 -120.642761 36 1147ft 73kts
02-Nov-23 09:17 35.126443 -120.616286 89 1862ft 91kts
02-Nov-23 09:18 35.124725 -120.583255 99 2489ft 107kts
02-Nov-23 09:19 35.124433 -120.545243 90 2900ft 113kts
02-Nov-23 09:20 35.123670 -120.507606 89 3370ft 110kts
02-Nov-23 09:21 35.122170 -120.470363 90 3727ft 108kts
02-Nov-23 09:22 35.122315 -120.433353 94 4004ft 114kts
02-Nov-23 09:23 35.118790 -120.395948 95 4370ft 103kts
02-Nov-23 09:24 35.117681 -120.363193 89 4996ft 85kts
02-Nov-23 09:25 35.117797 -120.330718 88 5340ft 97kts
02-Nov-23 09:26 35.115988 -120.297606 95 5774ft 97kts
02-Nov-23 09:27 35.112324 -120.273511 90 6053ft 96kts
02-Nov-23 09:28 35.112324 -120.273511 90 6053ft 96kts
02-Nov-23 09:29 35.112324 -120.273511 90 6053ft 96kts
02-Nov-23 09:30 35.112324 -120.273511 90 6053ft 96kts
02-Nov-23 09:31 35.112324 -120.273511 90 6053ft 96kts
02-Nov-23 09:32 35.112324 -120.273511 90 6053ft 96kts
02-Nov-23 09:33 35.112324 -120.273511 90 6053ft 96kts
02-Nov-23 09:34 35.112324 -120.273511 90 6053ft 96kts
02-Nov-23 09:35 35.112324 -120.273511 90 6053ft 96kts
02-Nov-23 09:36 35.112324 -120.273511 90 6053ft 96kts
02-Nov-23 09:37 35.112324 -120.273511 90 6053ft 96kts
02-Nov-23 09:38 35.112324 -120.273511 90 6053ft 96kts
02-Nov-23 09:39 35.112324 -120.273511 90 6053ft 96kts
02-Nov-23 09:40 35.112324 -120.273511 90 6051ft 96kts
02-Nov-23 09:41 35.112324 -120.273511 90 6051ft 96kts
02-Nov-23 09:42 35.112324 -120.273511 90 6051ft 96kts
02-Nov-23 09:43 35.112324 -120.273511 90 6051ft 96kts
02-Nov-23 09:44 35.112324 -120.273511 90 6051ft 96kts
02-Nov-23 09:45 35.112324 -120.273511 90 6051ft 96kts
02-Nov-23 09:46 35.112324 -120.273511 90 6051ft 96kts
02-Nov-23 09:47 35.112324 -120.273511 90 6051ft 96kts
02-Nov-23 09:48 35.112324 -120.273511 90 6051ft 96kts
02-Nov-23 09:49 35.112324 -120.273511 90 6051ft 96kts
02-Nov-23 09:50 35.112324 -120.273511 90 6051ft 96kts
02-Nov-23 09:51 35.112324 -120.273511 90 6051ft 96kts
02-Nov-23 09:52 35.112324 -120.273511 90 6051ft 96kts
02-Nov-23 09:53 35.112324 -120.273511 90 6050ft 96kts
02-Nov-23 09:54 35.112324 -120.273511 90 6050ft 96kts
02-Nov-23 09:55 35.112324 -120.273511 90 6050ft 96kts
02-Nov-23 09:56 35.112356 -120.266710 82 6096ft 99kts
02-Nov-23 09:57 35.118340 -120.234386 74 6449ft 98kts
02-Nov-23 09:58 35.121319 -120.201221 85 6818ft 98kts
02-Nov-23 09:59 35.121646 -120.167662 89 7108ft 99kts
02-Nov-23 10:00 35.117408 -120.134069 100 7381ft 100kts
02-Nov-23 10:01 35.111390 -120.101676 99 7628ft 101kts
02-Nov-23 10:02 35.104300 -120.068703 113 7807ft 103kts
02-Nov-23 10:03 35.090073 -120.038496 125 7869ft 104kts
02-Nov-23 10:04 35.072778 -120.005226 117 7584ft 115kts
02-Nov-23 10:05 35.056984 -119.970301 115 7162ft 117kts
02-Nov-23 10:06 35.043549 -119.933826 114 6727ft 117kts
02-Nov-23 10:07 35.029447 -119.897984 118 6298ft 117kts
02-Nov-23 10:08 35.015886 -119.862065 112 5893ft 117kts
02-Nov-23 10:09 35.005801 -119.824413 110 5522ft 116kts
02-Nov-23 10:10 34.992689 -119.788125 115 5098ft 123kts
02-Nov-23 10:11 34.982407 -119.748506 103 4656ft 120kts
02-Nov-23 10:12 34.978812 -119.708345 96 4533ft 121kts
02-Nov-23 10:13 34.959436 -119.679468 162 4316ft 116kts
02-Nov-23 10:14 34.928246 -119.688830 214 3931ft 117kts
02-Nov-23 10:15 34.936151 -119.721070 298 3376ft 114kts
02-Nov-23 10:16 34.955208 -119.731852 66 2982ft 87kts
02-Nov-23 10:17 34.947600 -119.704115 117 2486ft 88kts
02-Nov-23 10:18 34.940006 -119.685886 86 2181ft 0kts
02-Nov-23 10:19 34.941309 -119.688894 297 2163ft 23kts
02-Nov-23 10:20 34.942897 -119.691016 115 2151ft 5kts
02-Nov-23 10:21 34.942652 -119.690264 111 2154ft 0kts
02-Nov-23 10:22 34.942652 -119.690264 111 2154ft 0kts
02-Nov-23 10:23 34.942652 -119.690264 111 2154ft 0kts

Navigation Log

Ident Type
Flight plan parsing failed, navigation log unavailable